createdAt,value
2023-04-15T00:01:20.010Z,4.59
2023-04-15T00:03:53.915Z,4.84
2023-04-15T00:06:23.210Z,4.37
2023-04-15T00:08:51.988Z,4.43
2023-04-15T00:11:20.793Z,4.56
2023-04-15T00:13:49.621Z,4.55
2023-04-15T00:16:18.502Z,4.57
2023-04-15T00:18:47.353Z,4.81
2023-04-15T00:21:17.597Z,4.78
2023-04-15T00:23:49.822Z,4.81
2023-04-15T00:26:19.343Z,4.94
2023-04-15T00:28:49.687Z,5.01
2023-04-15T00:31:18.782Z,4.62
2023-04-15T00:33:48.810Z,4.56
2023-04-15T00:36:19.050Z,4.55
2023-04-15T00:38:48.267Z,4.52
2023-04-15T00:41:17.208Z,4.46
2023-04-15T00:43:46.322Z,4.58
2023-04-15T00:46:17.194Z,4.55
2023-04-15T00:48:46.844Z,4.59
2023-04-15T00:51:15.928Z,4.40
2023-04-15T00:53:46.134Z,4.37
2023-04-15T00:56:15.426Z,4.50
2023-04-15T00:58:44.459Z,4.62
2023-04-15T01:01:14.140Z,4.57
2023-04-15T01:03:43.248Z,4.06
2023-04-15T01:06:12.716Z,3.64
2023-04-15T01:08:42.174Z,2.98
2023-04-15T01:11:13.998Z,2.56
2023-04-15T01:13:43.128Z,2.82
2023-04-15T01:16:13.197Z,2.85
2023-04-15T01:18:42.667Z,2.97
2023-04-15T01:21:12.026Z,3.13
2023-04-15T01:23:40.945Z,3.03
2023-04-15T01:26:11.369Z,3.12
2023-04-15T01:28:40.902Z,3.22
2023-04-15T01:31:11.717Z,3.13
2023-04-15T01:33:41.358Z,2.95
2023-04-15T01:36:28.516Z,3.11
2023-04-15T01:38:58.418Z,3.40
2023-04-15T01:41:29.281Z,3.50
2023-04-15T01:43:59.401Z,3.60
2023-04-15T01:46:29.661Z,3.73
2023-04-15T01:49:00.138Z,3.90
2023-04-15T01:51:31.149Z,3.94
2023-04-15T01:54:01.576Z,4.18
2023-04-15T01:56:34.814Z,4.33
2023-04-15T01:59:06.753Z,4.03
2023-04-15T02:01:37.017Z,3.76
2023-04-15T02:04:08.291Z,3.67
2023-04-15T02:06:38.436Z,3.51
2023-04-15T02:09:08.584Z,3.56
2023-04-15T02:11:40.069Z,3.59
2023-04-15T02:14:10.209Z,3.55
2023-04-15T02:16:40.619Z,3.49
2023-04-15T02:19:10.906Z,3.58
2023-04-15T02:21:41.656Z,3.57
2023-04-15T02:24:12.467Z,3.40
2023-04-15T02:26:46.790Z,3.43
2023-04-15T02:29:16.944Z,3.43
2023-04-15T02:31:48.210Z,3.28
2023-04-15T02:34:18.798Z,3.37
2023-04-15T02:36:49.837Z,3.00
2023-04-15T02:39:20.168Z,3.22
2023-04-15T02:41:52.571Z,3.16
2023-04-15T02:44:24.975Z,3.08
2023-04-15T02:46:59.587Z,3.28
2023-04-15T02:49:31.099Z,3.23
2023-04-15T02:52:02.013Z,3.16
2023-04-15T02:54:34.015Z,3.17
2023-04-15T02:57:06.912Z,3.24
2023-04-15T02:59:37.376Z,3.15
2023-04-15T03:02:08.619Z,3.03
2023-04-15T03:04:39.822Z,2.92
2023-04-15T03:07:09.995Z,3.17
2023-04-15T03:09:41.338Z,3.30
2023-04-15T03:12:13.276Z,3.41
2023-04-15T03:14:43.368Z,3.49
2023-04-15T03:17:13.538Z,3.46
2023-04-15T03:19:43.782Z,3.40
2023-04-15T03:22:14.992Z,3.20
2023-04-15T03:24:45.124Z,3.40
2023-04-15T03:27:17.064Z,3.42
2023-04-15T03:29:47.410Z,3.42
2023-04-15T03:32:19.753Z,3.37
2023-04-15T03:34:49.940Z,3.53
2023-04-15T03:37:20.023Z,2.99
2023-04-15T03:39:50.155Z,2.62
2023-04-15T03:42:21.648Z,2.37
2023-04-15T03:44:52.414Z,2.52
2023-04-15T03:47:22.580Z,2.53
2023-04-15T03:49:52.668Z,3.31
2023-04-15T03:52:22.795Z,4.84
2023-04-15T03:54:53.122Z,5.77
2023-04-15T03:57:24.722Z,6.64
2023-04-15T03:59:54.801Z,5.39
2023-04-15T04:02:25.031Z,4.52
2023-04-15T04:04:55.437Z,4.00
2023-04-15T04:07:25.840Z,3.80
2023-04-15T04:09:56.180Z,3.57
2023-04-15T04:12:27.640Z,3.67
2023-04-15T04:14:57.782Z,3.66
2023-04-15T04:17:27.907Z,3.68
2023-04-15T04:19:58.036Z,3.59
2023-04-15T04:22:28.217Z,3.72
2023-04-15T04:24:59.455Z,3.88
2023-04-15T04:27:30.939Z,3.82
2023-04-15T04:30:01.142Z,3.67
2023-04-15T04:32:31.795Z,3.59
2023-04-15T04:35:02.009Z,3.67
2023-04-15T04:37:32.133Z,3.87
2023-04-15T04:40:02.814Z,3.87
2023-04-15T04:42:34.270Z,4.10
2023-04-15T04:45:04.506Z,4.17
2023-04-15T04:47:34.736Z,4.22
2023-04-15T04:50:05.317Z,4.10
2023-04-15T04:52:35.426Z,4.17
2023-04-15T04:55:06.624Z,4.43
2023-04-15T04:57:39.591Z,4.67
2023-04-15T05:00:10.669Z,5.07
2023-04-15T05:02:41.922Z,5.35
2023-04-15T05:05:13.388Z,5.50
2023-04-15T05:07:43.637Z,5.31
2023-04-15T05:10:14.824Z,4.95
2023-04-15T05:12:46.345Z,4.21
2023-04-15T05:15:16.418Z,3.91
2023-04-15T05:17:46.860Z,4.15
2023-04-15T05:20:17.028Z,4.43
2023-04-15T05:22:47.283Z,4.93
2023-04-15T05:25:17.989Z,5.44
2023-04-15T05:27:49.563Z,5.89
2023-04-15T05:30:20.059Z,6.20
2023-04-15T05:32:50.377Z,6.16
2023-04-15T05:35:20.592Z,6.39
2023-04-15T05:37:50.711Z,6.56
2023-04-15T05:40:21.181Z,6.71
2023-04-15T05:42:52.769Z,7.00
2023-04-15T05:45:22.880Z,7.47
2023-04-15T05:47:54.462Z,7.54
2023-04-15T05:50:24.662Z,7.93
2023-04-15T05:52:54.834Z,7.50
2023-04-15T05:55:24.999Z,8.07
2023-04-15T05:57:56.604Z,8.01
2023-04-15T06:00:27.463Z,8.75
2023-04-15T06:02:58.026Z,8.11
2023-04-15T06:05:28.269Z,7.99
2023-04-15T06:07:58.447Z,8.67
2023-04-15T06:10:28.579Z,9.21
2023-04-15T06:13:00.169Z,9.15
2023-04-15T06:15:31.271Z,9.44
2023-04-15T06:18:02.151Z,9.72
2023-04-15T06:20:32.717Z,9.82
2023-04-15T06:23:03.290Z,10.15
2023-04-15T06:25:33.433Z,10.69
2023-04-15T06:28:05.503Z,10.79
2023-04-15T06:30:36.930Z,10.78
2023-04-15T06:33:07.524Z,10.95
2023-04-15T06:35:37.848Z,11.55
2023-04-15T06:38:07.969Z,12.12
2023-04-15T06:40:38.166Z,12.07
2023-04-15T06:43:10.356Z,12.54
2023-04-15T06:45:40.554Z,13.05
2023-04-15T06:48:10.867Z,13.48
2023-04-15T06:50:41.641Z,13.67
2023-04-15T06:53:11.821Z,13.85
2023-04-15T06:55:41.897Z,12.90
2023-04-15T06:58:13.379Z,13.35
2023-04-15T07:00:43.522Z,13.59
2023-04-15T07:05:16.911Z,12.56
2023-04-15T07:07:47.226Z,13.33
2023-04-15T07:10:17.394Z,13.60
2023-04-15T07:12:47.519Z,13.27
2023-04-15T07:15:17.908Z,13.45
2023-04-15T07:17:48.220Z,14.68
2023-04-15T07:20:20.015Z,13.79
2023-04-15T07:22:50.144Z,14.17
2023-04-15T07:25:20.323Z,14.21
2023-04-15T07:27:50.632Z,14.02
2023-04-15T07:30:20.739Z,14.66
2023-04-15T07:32:50.935Z,14.81
2023-04-15T07:35:22.652Z,14.06
2023-04-15T07:37:52.810Z,14.90
2023-04-15T07:40:23.528Z,14.63
2023-04-15T07:42:53.739Z,13.86
2023-04-15T07:45:23.855Z,14.06
2023-04-15T07:47:54.051Z,14.40
2023-04-15T07:50:26.315Z,13.99
2023-04-15T07:52:57.387Z,13.90
2023-04-15T07:55:28.291Z,14.02
2023-04-15T07:57:58.564Z,13.67
2023-04-15T08:00:28.781Z,13.74
2023-04-15T08:02:59.668Z,14.12
2023-04-15T08:05:31.330Z,14.02
2023-04-15T08:08:02.065Z,14.26
2023-04-15T08:10:32.366Z,13.60
2023-04-15T08:13:03.274Z,13.32
2023-04-15T08:15:34.021Z,13.51
2023-04-15T08:18:04.582Z,13.54
2023-04-15T08:20:36.190Z,13.73
2023-04-15T08:23:06.331Z,13.73
2023-04-15T08:25:36.972Z,14.73
2023-04-15T08:28:08.049Z,14.99
2023-04-15T08:30:38.219Z,14.77
2023-04-15T08:33:08.391Z,14.03
2023-04-15T08:35:39.921Z,14.09
2023-04-15T08:38:10.028Z,14.91
2023-04-15T08:40:43.809Z,14.60
2023-04-15T08:43:19.933Z,14.69
2023-04-15T08:45:51.925Z,14.32
2023-04-15T08:48:24.677Z,14.87
2023-04-15T08:50:56.659Z,14.48
2023-04-15T08:53:27.678Z,14.68
2023-04-15T08:55:59.334Z,14.91
2023-04-15T08:58:29.662Z,15.70
2023-04-15T09:01:00.215Z,15.77
2023-04-15T09:03:31.747Z,15.44
2023-04-15T09:06:05.846Z,15.38
2023-04-15T09:08:36.166Z,15.43
2023-04-15T09:11:06.630Z,16.03
2023-04-15T09:13:37.072Z,16.16
2023-04-15T09:16:08.482Z,17.41
2023-04-15T09:18:40.082Z,18.04
2023-04-15T09:21:13.299Z,15.86
2023-04-15T09:23:56.205Z,16.12
2023-04-15T09:26:33.735Z,16.44
2023-04-15T09:29:06.781Z,17.89
2023-04-15T09:31:37.411Z,18.61
2023-04-15T09:34:07.893Z,19.19
2023-04-15T09:36:54.165Z,18.79
2023-04-15T09:39:24.391Z,17.27
2023-04-15T09:42:06.939Z,18.56
2023-04-15T09:44:37.135Z,19.86
2023-04-15T09:47:07.489Z,19.11
2023-04-15T09:49:37.647Z,17.96
2023-04-15T09:52:43.291Z,17.23
2023-04-15T09:55:13.940Z,19.93
2023-04-15T09:57:44.645Z,20.21
2023-04-15T10:00:15.976Z,18.57
2023-04-15T10:05:18.931Z,17.84
2023-04-15T10:07:51.275Z,18.36
2023-04-15T10:10:22.123Z,17.24
2023-04-15T10:12:53.697Z,17.51
2023-04-15T10:15:25.708Z,18.36
2023-04-15T10:17:57.653Z,18.08
2023-04-15T10:20:30.380Z,19.15
2023-04-15T10:23:03.301Z,19.47
2023-04-15T10:25:35.166Z,18.96
2023-04-15T10:28:07.436Z,19.79
2023-04-15T10:30:37.902Z,19.85
2023-04-15T10:33:10.567Z,19.90
2023-04-15T10:35:41.328Z,20.91
2023-04-15T10:38:38.550Z,19.18
2023-04-15T10:41:21.042Z,19.30
2023-04-15T10:43:54.294Z,18.41
2023-04-15T10:46:26.679Z,19.58
2023-04-15T10:48:57.736Z,19.96
2023-04-15T10:51:29.721Z,18.85
2023-04-15T10:54:02.241Z,18.31
2023-04-15T10:56:32.432Z,19.81
2023-04-15T10:59:03.131Z,21.13
2023-04-15T11:01:52.771Z,20.54
2023-04-15T11:04:54.813Z,20.47
2023-04-15T11:07:43.577Z,19.61
2023-04-15T11:10:55.973Z,18.80
2023-04-15T11:13:31.478Z,19.45
2023-04-15T11:16:03.656Z,19.32
2023-04-15T11:18:35.500Z,19.32
2023-04-15T11:21:07.945Z,18.38
2023-04-15T11:23:41.387Z,17.79
2023-04-15T11:26:12.925Z,18.68
2023-04-15T11:28:46.730Z,18.40
2023-04-15T11:31:18.591Z,17.52
2023-04-15T11:33:55.271Z,18.54
2023-04-15T11:36:27.745Z,18.76
2023-04-15T11:38:59.838Z,19.57
2023-04-15T11:41:29.964Z,19.38
2023-04-15T11:44:02.351Z,19.08
2023-04-15T11:46:33.003Z,18.50
2023-04-15T11:49:04.888Z,18.36
2023-04-15T11:51:35.555Z,19.19
2023-04-15T11:54:04.809Z,20.08
2023-04-15T11:56:33.846Z,20.35
2023-04-15T11:59:04.600Z,19.29
2023-04-15T12:01:33.933Z,19.79
2023-04-15T12:04:04.601Z,21.22
2023-04-15T12:06:35.116Z,21.72
2023-04-15T12:09:10.639Z,22.14
2023-04-15T12:11:42.310Z,22.66
2023-04-15T12:14:17.246Z,21.97
2023-04-15T12:16:50.110Z,21.93
2023-04-15T12:19:25.195Z,21.21
2023-04-15T12:21:56.625Z,21.92
2023-04-15T12:24:26.339Z,21.96
2023-04-15T12:26:57.313Z,19.24
2023-04-15T12:29:30.234Z,18.83
2023-04-15T12:32:00.578Z,19.46
2023-04-15T12:34:31.677Z,19.35
2023-04-15T12:37:03.380Z,19.21
2023-04-15T12:39:34.058Z,19.00
2023-04-15T12:42:05.345Z,19.37
2023-04-15T12:44:38.039Z,19.60
2023-04-15T12:47:07.762Z,19.80
2023-04-15T12:49:37.763Z,18.72
2023-04-15T12:52:06.994Z,19.08
2023-04-15T12:54:36.200Z,20.10
2023-04-15T12:57:07.310Z,19.51
2023-04-15T12:59:37.934Z,19.13
2023-04-15T13:02:07.401Z,18.56
2023-04-15T13:04:36.381Z,18.66
2023-04-15T13:07:05.816Z,18.98
2023-04-15T13:09:35.304Z,19.06
2023-04-15T13:12:05.393Z,18.68
2023-04-15T13:14:34.265Z,18.93
2023-04-15T13:17:10.173Z,18.45
2023-04-15T13:19:40.071Z,17.51
2023-04-15T13:22:08.910Z,17.61
2023-04-15T13:24:39.229Z,17.47
2023-04-15T13:27:08.446Z,17.37
2023-04-15T13:29:37.811Z,17.69
2023-04-15T13:32:08.201Z,18.04
2023-04-15T13:34:37.039Z,18.23
2023-04-15T13:37:08.083Z,18.71
2023-04-15T13:39:36.970Z,18.79
2023-04-15T13:42:06.061Z,19.18
2023-04-15T13:44:35.193Z,19.49
2023-04-15T13:47:04.481Z,19.51
2023-04-15T13:49:34.708Z,19.32
2023-04-15T13:52:04.523Z,19.12
2023-04-15T13:54:37.594Z,19.23
2023-04-15T13:57:07.359Z,19.42
2023-04-15T13:59:36.271Z,19.26
2023-04-15T14:02:05.300Z,18.97
2023-04-15T14:04:35.577Z,19.00
2023-04-15T14:07:05.389Z,19.33
2023-04-15T14:09:35.411Z,19.54
2023-04-15T14:12:04.970Z,19.30
2023-04-15T14:14:34.109Z,18.98
2023-04-15T14:17:04.092Z,18.74
2023-04-15T14:19:33.232Z,18.67
2023-04-15T14:22:03.562Z,18.78
2023-04-15T14:24:32.451Z,18.73
2023-04-15T14:27:02.201Z,18.34
2023-04-15T14:29:31.248Z,18.77
2023-04-15T14:32:11.413Z,18.87
2023-04-15T14:34:41.876Z,18.72
2023-04-15T14:37:12.107Z,18.29
2023-04-15T14:39:41.152Z,18.58
2023-04-15T14:42:10.081Z,18.99
2023-04-15T14:44:39.062Z,19.24
2023-04-15T14:47:07.907Z,19.75
2023-04-15T14:49:36.815Z,20.19
2023-04-15T14:52:05.831Z,20.13
2023-04-15T14:54:36.140Z,19.77
2023-04-15T14:57:05.401Z,19.48
2023-04-15T14:59:34.263Z,19.64
2023-04-15T15:02:05.174Z,19.07
2023-04-15T15:04:34.184Z,18.48
2023-04-15T15:07:03.725Z,18.02
2023-04-15T15:09:34.519Z,17.76
2023-04-15T15:12:05.501Z,17.95
2023-04-15T15:14:34.342Z,18.25
2023-04-15T15:17:04.247Z,18.12
2023-04-15T15:19:33.108Z,17.70
2023-04-15T15:22:02.011Z,17.26
2023-04-15T15:24:30.884Z,17.59
2023-04-15T15:26:59.929Z,17.42
2023-04-15T15:29:30.064Z,17.34
2023-04-15T15:31:58.902Z,17.39
2023-04-15T15:34:27.954Z,17.14
2023-04-15T15:36:57.567Z,17.42
2023-04-15T15:39:26.582Z,17.35
2023-04-15T15:41:55.412Z,17.13
2023-04-15T15:44:24.248Z,16.91
2023-04-15T15:46:54.672Z,16.70
2023-04-15T15:49:25.380Z,16.70
2023-04-15T15:51:54.262Z,16.69
2023-04-15T15:54:23.108Z,16.65
2023-04-15T15:56:51.942Z,16.60
2023-04-15T15:59:20.765Z,16.36
2023-04-15T16:01:50.579Z,16.27
2023-04-15T16:04:21.111Z,16.39
2023-04-15T16:06:50.067Z,16.58
2023-04-15T16:09:18.991Z,16.66
2023-04-15T16:11:47.800Z,16.60
2023-04-15T16:14:16.662Z,16.61
2023-04-15T16:16:45.586Z,16.65
2023-04-15T16:19:15.330Z,16.56
2023-04-15T16:21:45.835Z,16.57
2023-04-15T16:24:14.681Z,16.27
2023-04-15T16:26:43.511Z,16.04
2023-04-15T16:29:12.473Z,16.05
2023-04-15T16:31:41.586Z,15.84
2023-04-15T16:34:11.131Z,15.55
2023-04-15T16:36:40.603Z,15.84
2023-04-15T16:39:11.274Z,15.69
2023-04-15T16:41:41.370Z,15.93
2023-04-15T16:44:10.940Z,15.98
2023-04-15T16:46:40.979Z,15.64
2023-04-15T16:49:10.097Z,16.03
2023-04-15T16:51:38.931Z,15.99
2023-04-15T16:54:07.716Z,15.70
2023-04-15T16:56:38.029Z,15.86
2023-04-15T16:59:06.870Z,15.71
2023-04-15T17:01:36.171Z,15.62
2023-04-15T17:04:05.763Z,15.58
2023-04-15T17:06:34.782Z,15.45
2023-04-15T17:09:04.061Z,15.16
2023-04-15T17:11:33.286Z,15.58
2023-04-15T17:14:04.184Z,15.57
2023-04-15T17:16:33.036Z,15.61
2023-04-15T17:19:02.163Z,15.47
2023-04-15T17:21:35.937Z,15.36
2023-04-15T17:24:05.168Z,15.49
2023-04-15T17:26:42.175Z,15.53
2023-04-15T17:29:13.549Z,15.27
2023-04-15T17:31:48.198Z,15.34
2023-04-15T17:34:50.119Z,15.36
2023-04-15T17:37:39.918Z,15.40
2023-04-15T17:40:28.658Z,15.25
2023-04-15T17:43:17.353Z,15.11
2023-04-15T17:46:07.770Z,15.02
2023-04-15T17:48:56.540Z,14.87
2023-04-15T17:51:46.689Z,14.53
2023-04-15T17:54:35.628Z,14.38
2023-04-15T17:57:25.284Z,14.77
2023-04-15T18:00:15.092Z,15.08
2023-04-15T18:03:05.612Z,14.97
2023-04-15T18:05:54.652Z,14.76
2023-04-15T18:08:43.438Z,14.30
2023-04-15T18:11:33.921Z,14.18
2023-04-15T18:14:33.634Z,14.30
2023-04-15T18:17:23.257Z,14.40
2023-04-15T18:20:14.026Z,14.50
2023-04-15T18:22:43.442Z,14.55
2023-04-15T18:25:12.263Z,14.96
2023-04-15T18:27:41.234Z,14.72
2023-04-15T18:30:11.415Z,14.28
2023-04-15T18:32:40.742Z,14.00
2023-04-15T18:35:11.253Z,13.93
2023-04-15T18:37:41.479Z,13.81
2023-04-15T18:40:11.099Z,13.72
2023-04-15T18:42:39.998Z,13.62
2023-04-15T18:45:09.683Z,13.51
2023-04-15T18:47:38.584Z,13.24
2023-04-15T18:50:08.839Z,13.51
2023-04-15T18:52:37.799Z,13.43
2023-04-15T18:55:08.857Z,13.10
2023-04-15T18:57:42.501Z,13.24
2023-04-15T19:00:15.945Z,13.29
2023-04-15T19:02:45.080Z,13.33
2023-04-15T19:05:14.246Z,13.17
2023-04-15T19:07:43.096Z,12.71
2023-04-15T19:10:13.538Z,12.62
2023-04-15T19:12:42.397Z,12.87
2023-04-15T19:15:11.947Z,12.91
2023-04-15T19:17:40.783Z,12.64
2023-04-15T19:20:10.227Z,12.49
2023-04-15T19:22:39.423Z,12.50
2023-04-15T19:25:08.675Z,12.63
2023-04-15T19:27:39.280Z,12.72
2023-04-15T19:30:09.440Z,12.64
2023-04-15T19:32:38.327Z,12.65
2023-04-15T19:35:10.058Z,12.62
2023-04-15T19:37:40.518Z,12.18
2023-04-15T19:40:10.722Z,12.43
2023-04-15T19:42:40.969Z,12.40
2023-04-15T19:45:10.945Z,12.52
2023-04-15T19:47:39.861Z,12.48
2023-04-15T19:50:11.335Z,12.50
2023-04-15T19:52:40.169Z,12.34
2023-04-15T19:55:09.544Z,12.28
2023-04-15T19:57:38.424Z,12.08
2023-04-15T20:00:10.571Z,12.02
2023-04-15T20:02:39.557Z,11.95
2023-04-15T20:05:09.969Z,11.97
2023-04-15T20:07:42.366Z,12.24
2023-04-15T20:10:13.257Z,12.26
2023-04-15T20:12:50.349Z,12.06
2023-04-15T20:15:24.099Z,11.94
2023-04-15T20:17:53.134Z,11.77
2023-04-15T20:20:22.669Z,11.97
2023-04-15T20:22:52.963Z,11.85
2023-04-15T20:25:21.852Z,11.90
2023-04-15T20:27:50.816Z,11.91
2023-04-15T20:30:19.718Z,11.72
2023-04-15T20:32:50.051Z,11.61
2023-04-15T20:35:19.874Z,11.60
2023-04-15T20:37:50.476Z,11.41
2023-04-15T20:40:19.526Z,11.70
2023-04-15T20:42:48.297Z,11.62
2023-04-15T20:45:17.350Z,11.52
2023-04-15T20:47:46.247Z,11.40
2023-04-15T20:50:16.547Z,11.32
2023-04-15T20:52:45.344Z,11.30
2023-04-15T20:55:14.179Z,11.25
2023-04-15T20:57:43.055Z,11.21
2023-04-15T21:00:14.679Z,11.31
2023-04-15T21:02:43.873Z,11.09
2023-04-15T21:05:13.046Z,11.13
2023-04-15T21:07:43.228Z,11.20
2023-04-15T21:10:12.408Z,10.86
2023-04-15T21:12:42.626Z,10.95
2023-04-15T21:15:12.108Z,11.27
2023-04-15T21:17:41.702Z,10.96
2023-04-15T21:20:11.819Z,10.81
2023-04-15T21:22:41.313Z,10.70
2023-04-15T21:25:11.849Z,10.89
2023-04-15T21:27:40.713Z,10.83
2023-04-15T21:30:10.415Z,10.64
2023-04-15T21:32:39.424Z,10.34
2023-04-15T21:35:09.367Z,10.10
2023-04-15T21:37:38.754Z,10.12
2023-04-15T21:40:09.212Z,10.25
2023-04-15T21:42:39.423Z,10.59
2023-04-15T21:45:09.043Z,10.68
2023-04-15T21:47:59.699Z,10.80
2023-04-15T21:50:27.339Z,10.77
2023-04-15T21:52:56.283Z,10.88
2023-04-15T21:55:25.246Z,10.96
2023-04-15T21:57:55.449Z,10.99
2023-04-15T22:00:24.304Z,10.95
2023-04-15T22:02:53.850Z,11.18
2023-04-15T22:05:22.985Z,11.41
2023-04-15T22:07:51.805Z,11.39
2023-04-15T22:10:21.347Z,11.40
2023-04-15T22:12:50.189Z,11.38
2023-04-15T22:15:20.722Z,11.29
2023-04-15T22:17:49.665Z,11.36
2023-04-15T22:20:18.654Z,11.15
2023-04-15T22:22:47.551Z,11.22
2023-04-15T22:25:16.477Z,11.11
2023-04-15T22:27:45.372Z,11.15
2023-04-15T22:30:14.581Z,11.22
2023-04-15T22:32:44.972Z,11.15
2023-04-15T22:35:13.839Z,11.04
2023-04-15T22:37:42.675Z,11.20
2023-04-15T22:40:12.650Z,11.21
2023-04-15T22:42:41.588Z,11.01
2023-04-15T22:45:11.369Z,10.99
2023-04-15T22:47:40.255Z,11.01
2023-04-15T22:50:11.078Z,11.01
2023-04-15T22:52:40.032Z,11.06
2023-04-15T22:55:09.996Z,10.96
2023-04-15T22:57:38.847Z,10.90
2023-04-15T23:00:08.795Z,10.70
2023-04-15T23:02:37.826Z,10.30
2023-04-15T23:05:12.686Z,10.09
2023-04-15T23:07:43.180Z,10.45
2023-04-15T23:10:12.189Z,10.66
2023-04-15T23:12:41.008Z,10.69
2023-04-15T23:15:10.653Z,10.83
2023-04-15T23:17:39.788Z,10.58
2023-04-15T23:20:09.139Z,10.66
2023-04-15T23:22:38.641Z,10.65
2023-04-15T23:25:09.813Z,10.67
2023-04-15T23:27:38.670Z,10.67
2023-04-15T23:30:08.747Z,10.66
2023-04-15T23:32:37.696Z,10.56
2023-04-15T23:35:07.036Z,10.35
2023-04-15T23:37:35.916Z,10.30
2023-04-15T23:40:05.429Z,10.49
2023-04-15T23:42:35.688Z,10.60
2023-04-15T23:45:04.660Z,10.58
2023-04-15T23:47:33.697Z,10.23
2023-04-15T23:50:02.747Z,10.26
2023-04-15T23:52:31.661Z,10.46
2023-04-15T23:55:00.508Z,10.46
2023-04-15T23:57:29.645Z,10.58
